Time;durP1;ratioP1;P1;durP2;ratioP2;P2;SDS_P1;SDS_P2;PMS_P1;PMS_P2;Temp;Humidity;BMP_temperature;BMP_pressure;BME280_temperature;BME280_humidity;BME280_pressure;Samples;Min_cycle;Max_cycle;Signal;HPM_P1;HPM_P2
2021/04/12 00:01:27;;;;;;;2.25;1.50;;;;;;;6.13;42.14;101802.19;3586880;40;20308;-73
2021/04/12 00:04:02;;;;;;;2.78;1.27;;;;;;;6.12;42.15;101808.56;3588062;40;20048;-73
2021/04/12 00:06:37;;;;;;;3.33;1.55;;;;;;;6.12;42.00;101820.31;3585289;40;20052;-73
2021/04/12 00:09:10;;;;;;;4.20;1.50;;;;;;;6.10;42.31;101814.09;3583262;40;20049;-74
2021/04/12 00:11:42;;;;;;;2.75;1.42;;;;;;;6.07;42.19;101818.81;3587700;40;20091;-73
2021/04/12 00:14:16;;;;;;;3.50;1.55;;;;;;;6.06;42.15;101823.38;3587795;40;20052;-74
2021/04/12 00:16:48;;;;;;;3.08;1.50;;;;;;;6.06;42.19;101817.94;3586506;40;20084;-71
2021/04/12 00:19:22;;;;;;;2.67;1.65;;;;;;;6.04;42.06;101824.41;3587385;40;20060;-71
2021/04/12 00:21:54;;;;;;;5.10;1.60;;;;;;;6.05;42.18;101826.16;3585304;40;20055;-71
2021/04/12 00:24:27;;;;;;;2.83;1.40;;;;;;;6.01;42.22;101817.28;3585947;40;20051;-71
2021/04/12 00:27:01;;;;;;;;;;;;;;;5.78;42.58;101820.31;3586845;40;20110;-71
2021/04/12 00:29:39;;;;;;;2.72;1.40;;;;;;;5.96;42.39;101820.25;3586014;40;19944;-71
2021/04/12 00:32:14;;;;;;;2.80;1.45;;;;;;;5.97;42.47;101816.56;3586052;40;20131;-72
2021/04/12 00:34:53;;;;;;;2.97;1.40;;;;;;;5.98;42.09;101814.75;3584375;40;20084;-70
2021/04/12 00:37:27;;;;;;;4.40;1.55;;;;;;;5.95;42.26;101818.47;3585878;40;20044;-70
2021/04/12 00:40:02;;;;;;;3.45;1.40;;;;;;;5.96;42.06;101822.97;3585455;40;20051;-71
2021/04/12 00:42:57;;;;;;;3.63;1.65;;;;;;;5.93;42.06;101822.22;3585137;40;20548;-71
2021/04/12 00:45:47;;;;;;;3.15;1.40;;;;;;;5.91;42.07;101830.47;3585797;40;20044;-70
2021/04/12 00:48:36;;;;;;;4.25;1.70;;;;;;;5.90;42.16;101831.44;3582194;40;20045;-71
2021/04/12 00:51:22;;;;;;;3.53;1.73;;;;;;;5.91;42.17;101829.59;3584021;40;20059;-70
2021/04/12 00:54:08;;;;;;;3.50;1.50;;;;;;;5.89;42.18;101828.78;3582243;40;20048;-70
2021/04/12 00:56:44;;;;;;;2.65;1.50;;;;;;;5.87;42.31;101831.56;3585075;40;20161;-76
2021/04/12 00:59:22;;;;;;;3.70;2.10;;;;;;;5.87;42.33;101827.97;3583066;40;20048;-71
2021/04/12 01:01:55;;;;;;;3.58;1.92;;;;;;;5.86;42.25;101837.97;3584139;40;20058;-71
2021/04/12 01:04:44;;;;;;;4.00;2.10;;;;;;;5.85;42.31;101838.03;3583297;40;20051;-71
2021/04/12 01:07:58;;;;;;;3.10;1.70;;;;;;;5.82;42.22;101843.63;3585093;40;20377;-71
2021/04/12 01:10:49;;;;;;;2.60;1.80;;;;;;;5.81;42.46;101842.75;3584435;39;20084;-71
2021/04/12 01:13:49;;;;;;;3.10;1.60;;;;;;;5.79;42.26;101851.94;3585659;40;20055;-71
2021/04/12 01:16:32;;;;;;;3.17;1.60;;;;;;;5.79;42.48;101854.66;3579039;40;20417;-70
2021/04/12 01:19:12;;;;;;;3.30;1.67;;;;;;;5.76;42.49;101869.25;3585406;40;20049;-70
2021/04/12 01:22:27;;;;;;;4.05;1.73;;;;;;;5.72;42.63;101869.50;3585290;40;20067;-71
2021/04/12 01:25:32;;;;;;;3.85;1.80;;;;;;;5.74;42.66;101870.31;3585768;40;20041;-71
2021/04/12 01:28:43;;;;;;;4.43;1.83;;;;;;;5.70;42.69;101879.53;3583646;40;20053;-70
2021/04/12 01:31:57;;;;;;;3.88;1.90;;;;;;;5.70;42.46;101875.00;3585834;40;20328;-71
2021/04/12 01:35:02;;;;;;;3.70;1.80;;;;;;;5.68;42.62;101882.31;3587780;40;20063;-71
2021/04/12 01:37:48;;;;;;;5.55;1.85;;;;;;;5.68;42.35;101876.88;3584822;40;20040;-71
2021/04/12 01:40:26;;;;;;;2.42;1.55;;;;;;;5.69;42.67;101880.50;3587437;40;20040;-70
2021/04/12 01:43:09;;;;;;;3.92;1.77;;;;;;;5.66;42.77;101878.84;3595789;39;20043;-71
2021/04/12 01:45:47;;;;;;;2.92;1.63;;;;;;;5.64;42.72;101888.00;3585153;40;20048;-71
2021/04/12 01:48:39;;;;;;;3.47;1.80;;;;;;;5.65;42.48;101896.06;3583231;40;20056;-71
2021/04/12 01:51:29;;;;;;;3.35;1.80;;;;;;;5.63;42.45;101895.25;3583623;40;20028;-71
2021/04/12 01:54:26;;;;;;;4.10;1.90;;;;;;;5.62;42.54;101898.91;3584973;40;20054;-71
2021/04/12 01:57:28;;;;;;;4.60;1.95;;;;;;;5.57;42.60;101901.00;3584322;40;20100;-71
2021/04/12 02:00:20;;;;;;;4.13;1.90;;;;;;;5.60;42.81;101914.38;3585132;40;20126;-70
2021/04/12 02:02:57;;;;;;;4.18;1.83;;;;;;;5.58;42.77;101913.63;3573329;40;20056;-71
2021/04/12 02:05:52;;;;;;;3.55;1.80;;;;;;;5.57;42.45;101912.72;3585793;40;20324;-71
2021/04/12 02:08:28;;;;;;;3.42;1.98;;;;;;;5.55;42.52;101922.78;3586421;40;20057;-71
2021/04/12 02:11:13;;;;;;;5.05;2.47;;;;;;;5.56;42.35;101923.66;3584018;40;20114;-70
2021/04/12 02:13:53;;;;;;;4.40;2.08;;;;;;;5.54;42.48;101925.56;3585804;40;20058;-71
2021/04/12 02:16:32;;;;;;;4.72;2.28;;;;;;;5.53;42.32;101926.50;3587223;40;20122;-72
2021/04/12 02:19:15;;;;;;;4.57;2.20;;;;;;;5.51;42.30;101934.72;3584518;40;20063;-71
2021/04/12 02:21:57;;;;;;;4.35;2.33;;;;;;;5.48;42.38;101934.00;3586253;40;20052;-71
2021/04/12 02:24:30;;;;;;;3.90;2.35;;;;;;;5.48;42.43;101936.72;3586548;40;20047;-70
2021/04/12 02:27:13;;;;;;;4.75;2.15;;;;;;;5.46;42.34;101931.31;3585559;40;20040;-71
2021/04/12 02:29:53;;;;;;;;;;;;;;;5.19;42.79;101940.75;3586798;40;20052;-71
2021/04/12 02:32:41;;;;;;;3.50;2.10;;;;;;;5.40;42.83;101939.75;3586190;40;19940;-71
2021/04/12 02:35:23;;;;;;;3.58;2.15;;;;;;;5.40;42.49;101938.88;3586840;40;20096;-71
2021/04/12 02:38:10;;;;;;;5.15;1.95;;;;;;;5.39;42.44;101929.84;3586817;40;20055;-70
2021/04/12 02:40:55;;;;;;;4.72;2.25;;;;;;;5.38;42.67;101943.50;3586538;40;20052;-71
2021/04/12 02:43:41;;;;;;;4.70;2.20;;;;;;;5.37;42.87;101950.75;3586736;40;20060;-71
2021/04/12 02:46:22;;;;;;;4.38;2.20;;;;;;;5.34;42.76;101944.59;3585427;40;20052;-70
2021/04/12 02:48:59;;;;;;;5.45;2.50;;;;;;;5.33;42.67;101949.16;3585715;40;20048;-71
2021/04/12 02:51:48;;;;;;;4.40;2.22;;;;;;;5.33;42.69;101959.13;3585197;40;20413;-70
2021/04/12 02:54:33;;;;;;;5.85;2.22;;;;;;;5.30;42.50;101952.00;3585909;40;20133;-71
2021/04/12 02:57:51;;;;;;;4.72;2.22;;;;;;;5.27;42.96;101953.97;3585905;40;20044;-71
2021/04/12 03:00:52;;;;;;;4.70;2.20;;;;;;;5.23;42.88;101953.25;3569239;40;20057;-71
2021/04/12 03:03:47;;;;;;;4.13;2.00;;;;;;;5.23;43.03;101961.38;3588423;40;20052;-71
2021/04/12 03:06:53;;;;;;;4.68;1.98;;;;;;;5.25;42.94;101969.44;3584489;40;20065;-71
2021/04/12 03:09:39;;;;;;;3.45;2.15;;;;;;;5.24;42.95;101974.00;3585793;40;20052;-71
2021/04/12 03:12:32;;;;;;;4.47;2.50;;;;;;;5.22;42.88;101968.63;3586685;40;20048;-70
2021/04/12 03:15:33;;;;;;;4.90;2.65;;;;;;;5.21;42.74;101971.41;3585359;40;20130;-69
2021/04/12 03:18:44;;;;;;;4.22;2.72;;;;;;;5.20;42.96;101975.06;3583401;40;20025;-72
2021/04/12 03:21:27;;;;;;;4.07;2.75;;;;;;;5.19;43.22;101976.91;3585137;40;20041;-72
2021/04/12 03:24:04;;;;;;;5.38;3.10;;;;;;;5.18;42.70;101968.88;3584681;40;20084;-72
2021/04/12 03:26:56;;;;;;;5.30;3.28;;;;;;;5.19;42.84;101967.88;3585913;40;20048;-72
2021/04/12 03:29:30;;;;;;;6.80;3.38;;;;;;;5.16;43.18;101963.50;3586428;40;20386;-72
2021/04/12 03:32:22;;;;;;;6.63;3.40;;;;;;;5.17;43.03;101959.84;3585088;40;20081;-72
2021/04/12 03:35:00;;;;;;;5.20;3.25;;;;;;;5.14;42.89;101959.97;3580896;40;20484;-72
2021/04/12 03:37:40;;;;;;;6.20;3.97;;;;;;;5.16;42.85;101957.19;3584991;40;20081;-72
2021/04/12 03:40:20;;;;;;;7.22;3.63;;;;;;;5.14;42.81;101964.50;3585643;40;20040;-69
2021/04/12 03:43:10;;;;;;;7.05;3.83;;;;;;;5.13;43.04;101969.06;3585599;40;20048;-70
2021/04/12 03:46:32;;;;;;;7.07;4.00;;;;;;;5.08;42.86;101970.22;3585572;40;20112;-70
2021/04/12 03:49:34;;;;;;;9.77;4.75;;;;;;;5.05;42.50;101973.94;3584828;40;20424;-71
2021/04/12 03:52:27;;;;;;;9.05;4.10;;;;;;;5.05;43.07;101992.94;3577847;40;20045;-70
2021/04/12 03:55:13;;;;;;;6.60;3.80;;;;;;;5.03;43.17;101981.28;3584612;40;20387;-70
2021/04/12 03:58:22;;;;;;;7.88;4.20;;;;;;;5.00;42.84;101983.25;3585028;40;20076;-71
2021/04/12 04:01:01;;;;;;;6.40;4.07;;;;;;;5.00;42.98;101983.25;3585489;40;20044;-71
2021/04/12 04:03:48;;;;;;;5.15;3.42;;;;;;;4.99;42.88;101982.38;3584750;40;20138;-71
2021/04/12 04:06:28;;;;;;;6.55;3.97;;;;;;;4.99;43.10;101989.63;3586649;40;20044;-71
2021/04/12 04:09:05;;;;;;;6.97;3.88;;;;;;;4.97;43.12;101992.41;3586129;40;20401;-71
2021/04/12 04:11:52;;;;;;;5.60;3.60;;;;;;;4.97;42.67;102007.78;3583493;40;20395;-71
2021/04/12 04:14:51;;;;;;;6.10;3.28;;;;;;;4.93;43.18;101998.94;3585553;40;20048;-71
2021/04/12 04:17:34;;;;;;;6.53;3.40;;;;;;;4.95;42.92;102001.53;3585510;40;20405;-71
2021/04/12 04:20:18;;;;;;;5.22;3.28;;;;;;;4.92;42.95;102009.84;3585877;40;20141;-71
2021/04/12 04:23:08;;;;;;;7.35;3.30;;;;;;;4.92;43.05;102004.41;3585627;40;20153;-71
2021/04/12 04:25:57;;;;;;;6.50;3.65;;;;;;;4.92;43.31;102004.41;3584545;40;20127;-71
2021/04/12 04:28:46;;;;;;;5.57;3.33;;;;;;;4.90;43.02;102007.19;3584959;40;20125;-71
2021/04/12 04:31:40;;;;;;;4.68;2.95;;;;;;;4.90;43.02;102009.91;3584655;40;20060;-71
2021/04/12 04:34:21;;;;;;;6.10;3.13;;;;;;;4.89;42.82;102010.84;3585164;40;20040;-71
2021/04/12 04:37:13;;;;;;;5.40;3.03;;;;;;;4.87;42.77;102012.72;3584561;40;20066;-71
2021/04/12 04:40:06;;;;;;;4.57;2.80;;;;;;;4.84;42.82;102015.59;3585180;40;20137;-71
2021/04/12 04:43:09;;;;;;;4.22;2.33;;;;;;;4.78;43.21;102027.56;3585553;40;20048;-71
2021/04/12 04:46:10;;;;;;;5.45;2.80;;;;;;;4.79;42.85;102026.63;3585044;40;20048;-71
2021/04/12 04:48:57;;;;;;;4.88;2.55;;;;;;;4.80;42.98;102030.22;3585733;40;20041;-71
2021/04/12 04:51:38;;;;;;;4.18;2.42;;;;;;;4.78;43.09;102029.41;3584984;40;20051;-71
2021/04/12 04:54:57;;;;;;;4.97;2.42;;;;;;;4.72;43.28;102030.56;3587706;40;20052;-70
2021/04/12 04:57:35;;;;;;;4.32;2.42;;;;;;;4.74;43.40;102039.50;3584367;40;20128;-76
2021/04/12 05:00:13;;;;;;;4.18;2.70;;;;;;;4.74;43.18;102039.50;3584603;40;20385;-71
2021/04/12 05:03:20;;;;;;;4.10;2.42;;;;;;;4.72;42.85;102048.66;3584500;40;20041;-71
2021/04/12 05:06:10;;;;;;;6.05;2.63;;;;;;;4.70;43.03;102045.13;3585768;40;20068;-71
2021/04/12 05:09:30;;;;;;;4.47;2.42;;;;;;;4.63;42.91;102051.75;3583446;40;20052;-70
2021/04/12 05:12:37;;;;;;;4.40;2.78;;;;;;;4.63;42.95;102049.91;3547346;40;20658;-71
2021/04/12 05:15:42;;;;;;;6.57;2.83;;;;;;;4.63;42.98;102055.34;3553032;40;20042;-71
2021/04/12 05:18:44;;;;;;;4.68;2.30;;;;;;;4.62;43.12;102060.81;3584114;40;20057;-71
2021/04/12 05:21:36;;;;;;;4.53;2.35;;;;;;;4.63;43.40;102071.59;3589603;40;20032;-72
2021/04/12 05:24:17;;;;;;;5.28;2.72;;;;;;;4.62;43.33;102067.13;3586303;40;20141;-71
2021/04/12 05:27:02;;;;;;;7.35;3.72;;;;;;;4.63;42.99;102077.03;3584420;40;20055;-71
2021/04/12 05:29:50;;;;;;;6.32;3.30;;;;;;;4.64;43.42;102077.91;3583711;40;20052;-70
2021/04/12 05:32:35;;;;;;;7.28;3.50;;;;;;;4.63;43.49;102079.72;3585474;40;20044;-70
2021/04/12 05:35:18;;;;;;;5.53;3.03;;;;;;;4.65;43.33;102095.94;3584957;40;20059;-70
2021/04/12 05:38:03;;;;;;;5.40;3.05;;;;;;;4.63;43.56;102087.88;3584379;40;20405;-70
2021/04/12 05:41:03;;;;;;;5.32;3.33;;;;;;;4.64;43.51;102094.16;3584204;40;20061;-71
2021/04/12 05:43:47;;;;;;;6.25;2.90;;;;;;;4.64;43.39;102100.47;3582787;40;20516;-71
2021/04/12 05:46:34;;;;;;;4.95;3.15;;;;;;;4.66;43.47;102097.72;3587676;40;20056;-71
2021/04/12 05:49:24;;;;;;;4.60;3.03;;;;;;;4.67;43.62;102091.34;3587202;40;20475;-70
2021/04/12 05:52:27;;;;;;;6.40;3.33;;;;;;;4.64;43.59;102100.47;3588138;40;20326;-71
2021/04/12 05:55:08;;;;;;;5.63;3.50;;;;;;;4.67;43.68;102103.06;3595337;40;20056;-70
2021/04/12 05:57:49;;;;;;;4.50;3.10;;;;;;;4.69;43.75;102117.41;3586485;40;20065;-71
2021/04/12 06:00:27;;;;;;;5.55;3.17;;;;;;;4.72;43.59;102117.28;3586299;40;20059;-71
2021/04/12 06:03:12;;;;;;;6.40;3.53;;;;;;;4.73;43.42;102118.19;3588089;40;20331;-71
2021/04/12 06:05:59;;;;;;;4.82;3.03;;;;;;;4.74;43.81;102120.84;3580677;40;20041;-71
2021/04/12 06:09:08;;;;;;;6.68;3.83;;;;;;;4.74;43.95;102128.09;3583426;40;20052;-71
2021/04/12 06:12:17;;;;;;;6.45;3.53;;;;;;;4.76;43.41;102128.91;3584122;39;20052;-71
2021/04/12 06:15:12;;;;;;;6.03;3.40;;;;;;;4.77;43.61;102133.38;3565058;40;20068;-71
2021/04/12 06:18:02;;;;;;;7.80;4.18;;;;;;;4.77;43.11;102134.25;3587475;40;20084;-71
2021/04/12 06:20:49;;;;;;;7.45;3.67;;;;;;;4.77;43.56;102138.81;3588446;40;20064;-70
2021/04/12 06:23:37;;;;;;;5.88;4.00;;;;;;;4.78;43.30;102145.97;3587583;40;20376;-72
2021/04/12 06:26:40;;;;;;;6.47;3.95;;;;;;;4.77;43.48;102145.09;3587223;40;20305;-74
2021/04/12 06:29:23;;;;;;;8.55;3.53;;;;;;;4.78;43.72;102148.69;3588561;40;20057;-71
2021/04/12 06:32:15;;;;;;;4.72;3.00;;;;;;;4.79;43.88;102153.16;3587878;40;20037;-72
2021/04/12 06:35:16;;;;;;;5.57;3.30;;;;;;;4.80;43.85;102160.34;3589767;40;20062;-72
2021/04/12 06:37:54;;;;;;;5.80;3.78;;;;;;;4.82;43.73;102156.63;3584712;40;20044;-73
2021/04/12 06:40:49;;;;;;;5.60;3.50;;;;;;;4.83;43.83;102166.53;3582674;40;20167;-71
2021/04/12 06:43:49;;;;;;;7.60;3.90;;;;;;;4.84;43.73;102171.03;3582719;40;20049;-72
2021/04/12 06:47:14;;;;;;;4.95;3.40;;;;;;;4.79;43.78;102173.03;3588612;40;20048;-73
2021/04/12 06:50:21;;;;;;;5.07;3.17;;;;;;;4.83;44.23;102180.09;3588608;40;20052;-71
2021/04/12 06:53:48;;;;;;;5.65;3.78;;;;;;;4.86;43.85;102176.34;3588119;40;20076;-71
2021/04/12 06:56:58;;;;;;;5.38;3.28;;;;;;;4.88;43.76;102179.00;3587294;40;20158;-71
2021/04/12 07:00:16;;;;;;;7.05;3.80;;;;;;;4.89;44.14;102184.38;3587542;40;20329;-71
2021/04/12 07:03:32;;;;;;;6.13;4.22;;;;;;;4.90;44.10;102186.13;3595055;40;20068;-71
2021/04/12 07:06:23;;;;;;;4.97;3.70;;;;;;;4.96;44.10;102185.88;3589337;40;20376;-74
2021/04/12 07:09:13;;;;;;;5.65;3.85;;;;;;;5.01;44.44;102196.53;3590382;40;20057;-72
2021/04/12 07:12:18;;;;;;;5.95;4.00;;;;;;;5.03;44.19;102200.06;3586785;40;20048;-73
2021/04/12 07:15:31;;;;;;;5.50;4.40;;;;;;;5.05;44.02;102198.16;3585549;40;20053;-74
2021/04/12 07:18:37;;;;;;;5.05;3.40;;;;;;;5.06;44.19;102195.41;3591364;40;20421;-72
2021/04/12 07:21:39;;;;;;;5.55;3.80;;;;;;;5.09;44.20;102206.13;3579442;40;20096;-71
2021/04/12 07:24:39;;;;;;;6.47;4.38;;;;;;;5.15;43.99;102205.84;3595834;40;20055;-72
2021/04/12 07:27:43;;;;;;;6.53;3.88;;;;;;;5.17;44.34;102203.97;3587529;40;20127;-72
2021/04/12 07:30:28;;;;;;;7.15;3.80;;;;;;;5.20;44.09;102205.66;3583952;40;20100;-73
2021/04/12 07:33:03;;;;;;;5.82;3.63;;;;;;;5.23;43.96;102208.25;3587072;40;20130;-72
2021/04/12 07:36:11;;;;;;;7.75;3.88;;;;;;;5.25;44.24;102209.06;3583514;40;20328;-73
2021/04/12 07:39:16;;;;;;;5.47;3.80;;;;;;;5.28;44.19;102216.16;3585762;40;20064;-72
2021/04/12 07:42:14;;;;;;;6.40;3.92;;;;;;;5.31;44.29;102216.94;3584996;40;20047;-73
2021/04/12 07:45:16;;;;;;;7.47;4.40;;;;;;;5.33;44.13;102216.88;3584438;40;20048;-71
2021/04/12 07:48:23;;;;;;;7.10;4.28;;;;;;;5.37;44.26;102226.63;3585432;40;20401;-71
2021/04/12 07:51:26;;;;;;;5.13;3.53;;;;;;;5.39;44.53;102228.34;3569695;40;20427;-72
2021/04/12 07:54:35;;;;;;;6.35;4.32;;;;;;;5.42;44.15;102230.94;3560939;40;20063;-72
2021/04/12 07:57:50;;;;;;;6.18;4.10;;;;;;;5.43;44.11;102229.97;3587011;40;20141;-73
2021/04/12 08:00:32;;;;;;;;;;;;;;;5.28;44.93;102237.88;3586947;40;20582;-74
2021/04/12 08:03:47;;;;;;;5.47;3.33;;;;;;;5.55;44.72;102236.75;3587557;40;19932;-72
2021/04/12 08:07:08;;;;;;;8.88;4.28;;;;;;;5.63;44.58;102234.56;3586777;40;20114;-74
2021/04/12 08:09:55;;;;;;;7.22;4.15;;;;;;;5.77;44.86;102236.66;3587784;40;20053;-72
2021/04/12 08:13:03;;;;;;;6.47;3.72;;;;;;;5.86;44.60;102241.69;3581874;40;20053;-72
2021/04/12 08:16:19;;;;;;;7.53;4.05;;;;;;;5.95;44.78;102242.16;3586213;40;20134;-74
2021/04/12 08:19:07;;;;;;;5.35;3.38;;;;;;;6.07;44.52;102245.28;3586993;40;20055;-73
2021/04/12 08:22:16;;;;;;;5.30;3.42;;;;;;;6.15;44.16;102237.66;3585662;40;20048;-72
2021/04/12 08:24:58;;;;;;;6.05;3.50;;;;;;;6.26;44.76;102251.63;3587146;40;20428;-73
2021/04/12 08:27:56;;;;;;;5.80;3.58;;;;;;;6.39;44.75;102249.22;3592158;40;20048;-84
2021/04/12 08:31:03;;;;;;;6.13;3.88;;;;;;;6.49;44.73;102242.41;3576522;40;20029;-84
2021/04/12 08:34:21;;;;;;;4.60;3.03;;;;;;;6.59;44.81;102258.19;3568365;40;20065;-80
2021/04/12 08:37:22;;;;;;;5.88;3.60;;;;;;;6.77;44.21;102255.56;3551927;40;20037;-78
2021/04/12 08:40:21;;;;;;;6.32;3.80;;;;;;;6.88;43.79;102245.06;3538398;40;20038;-80
2021/04/12 08:43:14;;;;;;;6.55;3.85;;;;;;;6.96;43.36;102249.16;3565239;40;20077;-77
2021/04/12 08:46:19;;;;;;;5.80;3.67;;;;;;;7.04;43.52;102246.97;3567327;40;20342;-77
2021/04/12 08:49:05;;;;;;;5.75;3.60;;;;;;;7.11;43.58;102259.31;3558684;40;20373;-78
2021/04/12 08:52:00;;;;;;;6.47;4.40;;;;;;;7.15;42.37;102256.47;3559460;40;20037;-79
2021/04/12 08:54:58;;;;;;;6.88;4.35;;;;;;;7.19;42.72;102253.50;3565510;40;20032;-78
2021/04/12 08:57:50;;;;;;;7.03;4.00;;;;;;;7.23;42.43;102251.50;3555523;40;20084;-77
2021/04/12 09:01:41;;;;;;;6.95;4.63;;;;;;;7.24;42.41;102251.41;3537191;40;20037;-77
2021/04/12 09:04:48;;;;;;;6.80;4.65;;;;;;;7.25;42.44;102261.34;3570485;40;20465;-78
2021/04/12 09:08:16;;;;;;;8.30;5.35;;;;;;;7.22;42.25;102263.34;3577863;40;20075;-77
2021/04/12 09:11:15;;;;;;;5.60;4.75;;;;;;;7.29;42.39;102260.25;3564148;40;20050;-76
2021/04/12 09:14:21;;;;;;;6.40;4.55;;;;;;;7.27;42.31;102272.16;3564673;40;20090;-77
2021/04/12 09:17:10;;;;;;;7.15;4.70;;;;;;;7.29;42.38;102262.97;3581937;40;20065;-76
2021/04/12 09:20:04;;;;;;;6.00;4.60;;;;;;;7.28;42.21;102263.03;3588172;40;20029;-76
2021/04/12 09:23:13;;;;;;;6.95;5.00;;;;;;;7.24;42.05;102267.72;3588310;40;20313;-82
2021/04/12 09:26:28;;;;;;;6.22;4.65;;;;;;;7.22;42.43;102266.94;3585784;40;20066;-84
2021/04/12 09:29:43;;;;;;;6.43;4.20;;;;;;;7.28;42.28;102265.75;3556304;40;20362;-78
2021/04/12 09:32:35;;;;;;;6.10;4.13;;;;;;;7.32;42.33;102270.09;3569584;40;20378;-81
2021/04/12 09:35:26;;;;;;;6.07;3.80;;;;;;;7.37;42.69;102271.63;3582167;40;20386;-80
2021/04/12 09:38:12;;;;;;;5.30;3.40;;;;;;;7.40;41.64;102270.59;3588770;40;20037;-78
2021/04/12 09:41:29;;;;;;;4.05;2.50;;;;;;;7.45;42.12;102265.78;3589673;40;20361;-77
2021/04/12 09:44:25;;;;;;;5.55;2.90;;;;;;;7.55;41.89;102274.38;3572323;40;20034;-79
2021/04/12 09:47:28;;;;;;;4.40;2.50;;;;;;;7.64;41.48;102263.00;3589544;40;20048;-77
2021/04/12 09:50:18;;;;;;;3.70;2.30;;;;;;;7.73;40.97;102265.25;3580677;40;20048;-77
2021/04/12 09:53:10;;;;;;;4.15;2.30;;;;;;;7.78;40.86;102266.78;3588951;40;20052;-78
2021/04/12 09:56:26;;;;;;;3.22;2.25;;;;;;;7.83;40.83;102263.78;3586498;40;20378;-77
2021/04/12 09:59:26;;;;;;;5.07;2.22;;;;;;;7.90;41.18;102259.78;3549306;40;20396;-76
2021/04/12 10:02:20;;;;;;;3.65;2.38;;;;;;;8.02;40.97;102264.59;3579807;40;20036;-80
2021/04/12 10:05:02;;;;;;;4.32;1.98;;;;;;;8.13;40.84;102264.91;3590662;40;20073;-79
2021/04/12 10:08:05;;;;;;;2.65;1.85;;;;;;;8.19;39.74;102256.38;3580808;40;20049;-75
2021/04/12 10:10:47;;;;;;;3.05;1.80;;;;;;;8.34;39.90;102268.28;3589220;40;20060;-79
2021/04/12 10:13:27;;;;;;;3.22;1.90;;;;;;;8.43;39.28;102270.56;3589316;40;20056;-76
2021/04/12 10:16:07;;;;;;;4.68;2.17;;;;;;;8.51;38.84;102265.56;3589673;40;20376;-77
2021/04/12 10:18:58;;;;;;;4.80;2.05;;;;;;;8.62;39.06;102268.59;3590812;40;20071;-79
2021/04/12 10:21:31;;;;;;;2.97;1.67;;;;;;;8.72;39.56;102252.59;3590662;40;20032;-78
2021/04/12 10:24:08;;;;;;;4.07;2.08;;;;;;;8.82;38.67;102253.78;3590999;39;20024;-79
2021/04/12 10:26:43;;;;;;;3.75;1.80;;;;;;;8.93;38.58;102256.81;3583367;40;20073;-79
2021/04/12 10:29:15;;;;;;;3.00;1.70;;;;;;;9.05;39.23;102255.22;3581406;40;20081;-80
2021/04/12 10:31:53;;;;;;;4.32;1.77;;;;;;;9.15;37.91;102253.69;3578066;40;20045;-77
2021/04/12 10:34:26;;;;;;;4.30;1.80;;;;;;;9.27;38.24;102247.53;3586556;40;20080;-75
2021/04/12 10:37:04;;;;;;;2.28;1.40;;;;;;;9.39;38.37;102249.53;3585735;40;20108;-78
2021/04/12 10:39:42;;;;;;;2.13;1.40;;;;;;;9.53;38.57;102256.03;3591631;40;20035;-85
2021/04/12 10:42:25;;;;;;;3.30;1.40;;;;;;;9.65;36.92;102249.81;3591491;40;20073;-82
2021/04/12 10:45:02;;;;;;;3.40;1.40;;;;;;;9.73;37.26;102263.94;3592026;40;20041;-81
2021/04/12 10:47:48;;;;;;;4.03;1.50;;;;;;;9.83;36.26;102262.41;3581756;40;20086;-81
2021/04/12 10:50:26;;;;;;;2.28;1.38;;;;;;;9.89;35.48;102280.28;3580969;40;20033;-81
2021/04/12 10:53:21;;;;;;;2.20;1.10;;;;;;;9.91;35.45;102281.94;3581598;40;20065;-79
2021/04/12 10:55:59;;;;;;;3.67;1.20;;;;;;;9.91;36.08;102292.88;3574492;40;20044;-80
2021/04/12 10:58:49;;;;;;;2.00;0.90;;;;;;;9.88;36.21;102289.44;3592122;40;20041;-80
2021/04/12 11:01:28;;;;;;;0.98;0.80;;;;;;;9.82;35.85;102320.75;3592768;40;20102;-80
2021/04/12 11:04:11;;;;;;;1.58;1.10;;;;;;;9.76;35.86;102323.88;3591362;40;20110;-81
2021/04/12 11:06:49;;;;;;;2.80;1.80;;;;;;;9.63;35.93;102331.03;3581884;40;20041;-81
2021/04/12 11:09:34;;;;;;;1.92;0.93;;;;;;;9.52;35.71;102336.22;3581162;40;20044;-80
2021/04/12 11:12:12;;;;;;;1.25;1.02;;;;;;;9.40;35.92;102344.16;3580833;40;20040;-78
2021/04/12 11:14:51;;;;;;;1.42;1.10;;;;;;;9.28;36.25;102341.25;3581960;40;20382;-80
2021/04/12 11:17:35;;;;;;;2.08;1.10;;;;;;;9.13;35.90;102340.28;3582017;40;20376;-80
2021/04/12 11:20:11;;;;;;;1.73;1.15;;;;;;;9.00;36.83;102340.09;3581267;40;20029;-80
2021/04/12 11:22:49;;;;;;;2.13;1.20;;;;;;;8.91;36.97;102342.44;3581568;40;20073;-79
2021/04/12 11:25:21;;;;;;;2.53;1.35;;;;;;;8.82;37.19;102340.22;3597755;40;20035;-81
2021/04/12 11:28:03;;;;;;;2.28;1.15;;;;;;;8.72;36.65;102339.88;3587244;40;20036;-77
2021/04/12 11:30:37;;;;;;;2.15;0.90;;;;;;;8.67;37.57;102360.19;3586381;40;20049;-77
2021/04/12 11:33:43;;;;;;;2.80;1.20;;;;;;;8.57;37.53;102363.41;3584755;40;20048;-76
2021/04/12 11:36:23;;;;;;;2.58;0.95;;;;;;;8.50;37.45;102361.97;3551439;40;20444;-79
2021/04/12 11:39:02;;;;;;;2.22;1.00;;;;;;;8.43;37.33;102338.72;3550702;40;20050;-84
2021/04/12 11:41:35;;;;;;;2.72;1.00;;;;;;;8.36;37.72;102339.09;3549971;40;20038;-79
2021/04/12 11:44:13;;;;;;;1.90;1.20;;;;;;;8.30;37.60;102334.00;3541795;40;20026;-80
2021/04/12 11:47:11;;;;;;;2.40;1.30;;;;;;;8.18;37.26;102327.34;3544203;40;20204;-81
2021/04/12 11:49:46;;;;;;;1.85;1.15;;;;;;;8.14;38.12;102336.66;3554021;40;20026;-78
2021/04/12 11:52:21;;;;;;;2.42;1.30;;;;;;;8.08;37.93;102332.38;3551032;40;20419;-78
2021/04/12 11:54:57;;;;;;;2.13;1.20;;;;;;;8.04;37.80;102338.09;3559238;40;20347;-77
2021/04/12 11:57:40;;;;;;;2.33;1.23;;;;;;;7.98;37.50;102341.16;3552250;40;20042;-86
2021/04/12 12:00:12;;;;;;;2.00;1.15;;;;;;;7.91;38.08;102345.13;3546225;40;20026;-83
2021/04/12 12:02:54;;;;;;;1.95;1.20;;;;;;;7.88;37.71;102348.91;3550856;40;20030;-82
2021/04/12 12:05:33;;;;;;;2.90;1.23;;;;;;;7.84;37.51;102360.91;3541900;40;20038;-81
2021/04/12 12:08:08;;;;;;;2.72;1.50;;;;;;;7.79;38.04;102361.16;3545751;40;20040;-82
2021/04/12 12:10:48;;;;;;;2.40;1.42;;;;;;;7.78;38.17;102358.50;3558141;40;20041;-80
2021/04/12 12:13:34;;;;;;;4.03;2.03;;;;;;;7.75;37.92;102362.25;3576212;40;20076;-81
2021/04/12 12:16:19;;;;;;;3.65;1.70;;;;;;;7.76;37.94;102358.56;3585405;40;20025;-84
2021/04/12 12:19:06;;;;;;;2.80;1.60;;;;;;;7.74;38.38;102368.66;3620166;22;20041;-67
2021/04/12 12:21:43;;;;;;;2.40;1.63;;;;;;;7.75;37.99;102375.88;3579751;40;20055;-67
2021/04/12 12:24:18;;;;;;;2.72;1.70;;;;;;;7.78;38.17;102377.56;3572958;40;20303;-68
2021/04/12 12:26:55;;;;;;;2.65;1.65;;;;;;;7.79;37.31;102385.69;3583197;40;20080;-66
2021/04/12 12:29:27;;;;;;;2.95;1.67;;;;;;;7.80;37.86;102372.94;3571826;40;20411;-67
2021/04/12 12:32:30;;;;;;;3.70;1.75;;;;;;;7.80;37.55;102383.84;3576451;40;20075;-67
2021/04/12 12:35:12;;;;;;;3.33;1.80;;;;;;;7.80;37.59;102392.91;3576003;40;20048;-67
2021/04/12 12:37:56;;;;;;;4.13;2.13;;;;;;;7.83;37.78;102400.88;3576559;40;20068;-67
2021/04/12 12:40:29;;;;;;;3.03;1.77;;;;;;;7.82;38.20;102412.75;3580228;40;20052;-66
2021/04/12 12:43:05;;;;;;;3.28;1.92;;;;;;;7.81;38.04;102416.47;3577297;40;20045;-68
2021/04/12 12:45:37;;;;;;;3.42;1.70;;;;;;;7.81;38.67;102413.72;3577461;40;20420;-68
2021/04/12 12:48:13;;;;;;;2.88;1.77;;;;;;;7.79;38.57;102410.19;3577870;40;20053;-67
2021/04/12 12:50:48;;;;;;;3.00;1.55;;;;;;;7.79;38.72;102415.66;3577978;40;20060;-68
2021/04/12 12:53:22;;;;;;;4.38;1.90;;;;;;;7.75;39.01;102413.13;3578581;40;20068;-68
2021/04/12 12:55:53;;;;;;;4.10;2.17;;;;;;;7.71;39.17;102416.97;3575867;40;20048;-68
2021/04/12 12:58:25;;;;;;;3.58;1.92;;;;;;;7.68;39.34;102412.56;3576767;40;20056;-68
2021/04/12 13:00:54;;;;;;;3.30;1.65;;;;;;;7.64;39.48;102419.13;3576428;40;20053;-68
2021/04/12 13:03:29;;;;;;;3.05;1.90;;;;;;;7.64;39.61;102412.81;3576722;40;20084;-68
2021/04/12 13:05:58;;;;;;;2.90;1.65;;;;;;;7.59;39.95;102412.13;3578510;40;20053;-68
2021/04/12 13:08:28;;;;;;;3.00;1.63;;;;;;;7.58;39.75;102418.53;3576304;40;20053;-67
2021/04/12 13:10:57;;;;;;;3.25;1.60;;;;;;;7.56;40.03;102406.84;3575525;40;20048;-67
2021/04/12 13:13:29;;;;;;;3.08;1.88;;;;;;;7.55;39.89;102416.84;3576404;40;20423;-68
2021/04/12 13:16:09;;;;;;;2.33;1.67;;;;;;;7.52;39.97;102411.56;3576199;40;20081;-68
2021/04/12 13:18:41;;;;;;;3.13;1.83;;;;;;;7.51;40.29;102415.22;3575918;40;20045;-68